Time;durP1;ratioP1;P1;durP2;ratioP2;P2;SDS_P1;SDS_P2;PMS_P1;PMS_P2;Temp;Humidity;BMP_temperature;BMP_pressure;BME280_temperature;BME280_humidity;BME280_pressure;Samples;Min_cycle;Max_cycle;Signal;HPM_P1;HPM_P2
2022/06/26 00:00:53;;;;;;;;;;;;;;;23.63;64.74;99410.22;2067594;28;19921;-51
2022/06/26 00:01:53;;;;;;;;;;;;;;;23.63;65.01;99409.44;2067107;28;20065;-51
2022/06/26 00:02:53;;;;;;;;;;;;;;;23.62;64.81;99416.19;2067090;28;20231;-51
2022/06/26 00:03:54;;;;;;;;;;;;;;;23.63;65.21;99412.22;2069229;28;19917;-49
2022/06/26 00:04:54;;;;;;;;;;;;;;;23.62;65.09;99410.66;2067953;28;19925;-50
2022/06/26 00:05:55;;;;;;;;;;;;;;;23.63;64.82;99406.69;2068383;28;19917;-48
2022/06/26 00:06:55;;;;;;;;;;;;;;;23.63;64.82;99414.97;2065480;28;19925;-49
2022/06/26 00:07:56;;;;;;;;;;;;;;;23.62;64.67;99419.72;2064082;28;20312;-48
2022/06/26 00:08:56;;;;;;;;;;;;;;;23.62;64.76;99422.50;2068462;28;20438;-49
2022/06/26 00:09:56;;;;;;;;;;;;;;;23.61;64.86;99429.25;2062906;28;19921;-49
2022/06/26 00:10:57;;;;;;;;;;;;;;;23.62;64.62;99436.31;2067536;28;19924;-48
2022/06/26 00:11:58;;;;;;;;;;;;;;;23.62;64.69;99433.56;2065649;28;20530;-51
2022/06/26 00:12:58;;;;;;;;;;;;;;;23.63;64.57;99434.31;2064712;28;19921;-48
2022/06/26 00:13:58;;;;;;;;;;;;;;;23.63;64.58;99432.34;2054656;28;20372;-49
2022/06/26 00:14:59;;;;;;;;;;;;;;;23.63;64.71;99431.56;2063688;28;20001;-50
2022/06/26 00:15:59;;;;;;;;;;;;;;;23.63;64.41;99439.84;2068008;28;19917;-52
2022/06/26 00:17:00;;;;;;;;;;;;;;;23.62;64.93;99444.59;2066105;28;19925;-48
2022/06/26 00:18:00;;;;;;;;;;;;;;;23.61;64.53;99443.06;2074889;28;19917;-51
2022/06/26 00:19:00;;;;;;;;;;;;;;;23.62;64.73;99441.06;2069859;28;19952;-51
2022/06/26 00:20:00;;;;;;;;;;;;;;;23.62;64.77;99441.84;2068396;28;19934;-48
2022/06/26 00:21:01;;;;;;;;;;;;;;;23.61;64.59;99443.06;2069415;28;19924;-48
2022/06/26 00:22:05;;;;;;;;;;;;;;;23.62;64.42;99447.38;2066163;28;20387;-51
2022/06/26 00:23:05;;;;;;;;;;;;;;;23.61;64.67;99450.59;2068130;28;20030;-51
2022/06/26 00:24:06;;;;;;;;;;;;;;;23.61;64.81;99447.81;2067962;28;19921;-48
2022/06/26 00:25:06;;;;;;;;;;;;;;;23.60;64.79;99449.03;2061398;28;19977;-48
2022/06/26 00:26:07;;;;;;;;;;;;;;;23.58;64.53;99436.44;2062917;28;20547;-50
2022/06/26 00:27:07;;;;;;;;;;;;;;;23.58;64.35;99435.72;2067338;28;19913;-49
2022/06/26 00:28:08;;;;;;;;;;;;;;;23.56;64.29;99429.84;2068805;28;19967;-48
2022/06/26 00:29:08;;;;;;;;;;;;;;;23.56;64.39;99435.38;2066986;28;20315;-49
2022/06/26 00:30:08;;;;;;;;;;;;;;;23.56;64.22;99438.16;2068730;28;19924;-51
2022/06/26 00:31:09;;;;;;;;;;;;;;;23.54;64.60;99438.59;2067735;28;19921;-49
2022/06/26 00:32:09;;;;;;;;;;;;;;;23.52;64.73;99438.31;2067606;28;19909;-49
2022/06/26 00:33:09;;;;;;;;;;;;;;;23.54;64.72;99440.59;2068127;28;19964;-49
2022/06/26 00:34:09;;;;;;;;;;;;;;;23.52;64.82;99449.38;2065655;28;19936;-47
2022/06/26 00:35:10;;;;;;;;;;;;;;;23.53;64.36;99455.63;2068181;28;19951;-49
2022/06/26 00:36:10;;;;;;;;;;;;;;;23.52;64.47;99454.88;2067059;28;19909;-48
2022/06/26 00:37:10;;;;;;;;;;;;;;;23.53;64.42;99456.41;2071094;28;19964;-50
2022/06/26 00:38:11;;;;;;;;;;;;;;;23.53;64.52;99445.34;2068056;28;20353;-51
2022/06/26 00:39:11;;;;;;;;;;;;;;;23.53;64.55;99441.81;2065510;28;19917;-49
2022/06/26 00:40:11;;;;;;;;;;;;;;;23.53;64.47;99441.81;2068840;28;19913;-48
2022/06/26 00:41:11;;;;;;;;;;;;;;;23.52;64.38;99449.38;2067439;28;19917;-50
2022/06/26 00:42:12;;;;;;;;;;;;;;;23.53;64.21;99441.81;2067938;28;19917;-47
2022/06/26 00:43:12;;;;;;;;;;;;;;;23.51;64.31;99447.06;2068921;28;20224;-48
2022/06/26 00:44:16;;;;;;;;;;;;;;;23.51;64.24;99447.81;2067070;28;19924;-49
2022/06/26 00:45:16;;;;;;;;;;;;;;;23.51;64.15;99455.34;2067995;28;19967;-49
2022/06/26 00:46:17;;;;;;;;;;;;;;;23.48;64.23;99454.25;2067660;28;20370;-52
2022/06/26 00:47:18;;;;;;;;;;;;;;;23.47;64.10;99454.72;2067772;28;20361;-48
2022/06/26 00:48:18;;;;;;;;;;;;;;;23.47;64.32;99449.97;2071352;28;20275;-49
2022/06/26 00:49:19;;;;;;;;;;;;;;;23.46;64.38;99451.19;2069878;28;20320;-49
2022/06/26 00:50:19;;;;;;;;;;;;;;;23.48;64.30;99454.25;2072870;28;20167;-49
2022/06/26 00:51:20;;;;;;;;;;;;;;;23.47;64.56;99447.22;2068284;28;19909;-52
2022/06/26 00:52:22;;;;;;;;;;;;;;;23.47;64.33;99452.72;2064421;28;20149;-50
2022/06/26 00:53:22;;;;;;;;;;;;;;;23.46;64.33;99445.66;2066953;28;20336;-50
2022/06/26 00:54:24;;;;;;;;;;;;;;;23.45;64.29;99455.19;2066076;28;19917;-48
2022/06/26 00:55:25;;;;;;;;;;;;;;;23.47;64.38;99449.19;2067907;28;19959;-51
2022/06/26 00:56:25;;;;;;;;;;;;;;;23.46;64.32;99453.94;2068895;28;19935;-48
2022/06/26 00:57:26;;;;;;;;;;;;;;;23.46;64.26;99456.72;2066021;28;19931;-50
2022/06/26 00:58:27;;;;;;;;;;;;;;;23.46;64.34;99459.47;2068456;28;19948;-48
2022/06/26 00:59:27;;;;;;;;;;;;;;;23.46;64.61;99456.72;2066954;28;20383;-51
2022/06/26 01:00:28;;;;;;;;;;;;;;;23.47;64.56;99458.25;2066053;28;19996;-49
2022/06/26 01:01:28;;;;;;;;;;;;;;;23.46;64.48;99467.78;2067780;28;19914;-50
2022/06/26 01:02:28;;;;;;;;;;;;;;;23.48;64.35;99464.53;2068808;28;19921;-49
2022/06/26 01:03:29;;;;;;;;;;;;;;;23.47;64.34;99463.00;2073340;28;20207;-48
2022/06/26 01:04:29;;;;;;;;;;;;;;;23.46;64.46;99462.25;2064680;28;20674;-48
2022/06/26 01:05:29;;;;;;;;;;;;;;;23.46;64.44;99459.47;2062054;28;19926;-48
2022/06/26 01:06:31;;;;;;;;;;;;;;;23.46;64.61;99456.72;2068252;28;19909;-49
2022/06/26 01:07:31;;;;;;;;;;;;;;;23.46;64.96;99456.72;2068275;28;19919;-51
2022/06/26 01:08:31;;;;;;;;;;;;;;;23.47;64.58;99460.25;2062429;28;20273;-50
2022/06/26 01:09:33;;;;;;;;;;;;;;;23.47;64.56;99452.72;2067373;28;19921;-47
2022/06/26 01:10:33;;;;;;;;;;;;;;;23.47;64.40;99451.97;2067615;28;20430;-51
2022/06/26 01:11:34;;;;;;;;;;;;;;;23.46;64.32;99448.44;2066444;28;19913;-48
2022/06/26 01:12:35;;;;;;;;;;;;;;;23.45;64.50;99443.31;2061659;28;20512;-49
2022/06/26 01:13:35;;;;;;;;;;;;;;;23.45;64.65;99443.31;2064819;28;20142;-49
2022/06/26 01:14:35;;;;;;;;;;;;;;;23.45;64.63;99441.34;2067371;28;19956;-48
2022/06/26 01:15:36;;;;;;;;;;;;;;;23.45;64.58;99446.88;2063372;28;19925;-51
2022/06/26 01:16:37;;;;;;;;;;;;;;;23.44;64.62;99442.53;2065812;28;19964;-52
2022/06/26 01:17:38;;;;;;;;;;;;;;;23.43;64.49;99435.47;2069382;28;20071;-51
2022/06/26 01:18:39;;;;;;;;;;;;;;;23.43;64.67;99435.47;2062068;28;19939;-52
2022/06/26 01:19:40;;;;;;;;;;;;;;;23.45;64.58;99444.13;2066617;28;20079;-51
2022/06/26 01:20:40;;;;;;;;;;;;;;;23.44;64.34;99444.53;2068453;28;19960;-49
2022/06/26 01:21:40;;;;;;;;;;;;;;;23.42;64.41;99445.00;2066886;28;19909;-49
2022/06/26 01:22:41;;;;;;;;;;;;;;;23.43;64.45;99437.47;2067936;28;20356;-48
2022/06/26 01:23:41;;;;;;;;;;;;;;;23.42;64.43;99444.25;2066882;28;19910;-51
2022/06/26 01:24:41;;;;;;;;;;;;;;;23.42;64.37;99439.47;2070323;28;20047;-48
2022/06/26 01:25:46;;;;;;;;;;;;;;;23.42;64.73;99439.47;2067878;28;19917;-49
2022/06/26 01:26:47;;;;;;;;;;;;;;;23.43;64.84;99441.00;2068440;28;21021;-48
2022/06/26 01:27:47;;;;;;;;;;;;;;;23.43;65.01;99431.94;2069717;28;19917;-48
2022/06/26 01:28:47;;;;;;;;;;;;;;;23.42;64.93;99433.94;2069967;28;20334;-51
2022/06/26 01:29:48;;;;;;;;;;;;;;;23.42;64.67;99431.19;2067992;28;20272;-48
2022/06/26 01:30:48;;;;;;;;;;;;;;;23.42;64.64;99420.13;2066718;28;19917;-50
2022/06/26 01:31:49;;;;;;;;;;;;;;;23.42;64.75;99417.34;2069263;28;19956;-50
2022/06/26 01:32:49;;;;;;;;;;;;;;;23.42;64.52;99411.09;2059990;28;20328;-48
2022/06/26 01:33:50;;;;;;;;;;;;;;;23.42;64.55;99411.09;2060747;28;20305;-48
2022/06/26 01:34:50;;;;;;;;;;;;;;;23.43;64.73;99412.59;2069041;28;20254;-49
2022/06/26 01:35:51;;;;;;;;;;;;;;;23.43;64.62;99418.91;2064290;28;20522;-49
2022/06/26 01:36:51;;;;;;;;;;;;;;;23.42;64.63;99408.31;2069534;28;20225;-51
2022/06/26 01:37:51;;;;;;;;;;;;;;;23.43;64.65;99418.13;2067529;28;19952;-49
2022/06/26 01:38:52;;;;;;;;;;;;;;;23.42;64.65;99422.88;2064539;28;20264;-47
2022/06/26 01:39:52;;;;;;;;;;;;;;;23.43;64.67;99409.84;2068674;28;20308;-50
2022/06/26 01:40:54;;;;;;;;;;;;;;;23.42;64.72;99413.84;2067898;28;19917;-47
2022/06/26 01:41:54;;;;;;;;;;;;;;;23.42;64.89;99420.13;2069394;28;20020;-47
2022/06/26 01:42:54;;;;;;;;;;;;;;;23.41;65.35;99421.38;2066611;28;19928;-49
2022/06/26 01:43:55;;;;;;;;;;;;;;;23.41;65.42;99432.44;2069670;28;19909;-52
2022/06/26 01:44:55;;;;;;;;;;;;;;;23.41;65.34;99421.38;2068786;28;19921;-49
2022/06/26 01:45:56;;;;;;;;;;;;;;;23.40;65.38;99422.59;2067927;28;19909;-48
2022/06/26 01:46:57;;;;;;;;;;;;;;;23.41;65.59;99423.34;2070182;28;19967;-49
2022/06/26 01:47:57;;;;;;;;;;;;;;;23.40;65.43;99417.06;2067303;28;19979;-49
2022/06/26 01:48:57;;;;;;;;;;;;;;;23.39;65.64;99404.47;2071002;28;19979;-50
2022/06/26 01:49:58;;;;;;;;;;;;;;;23.40;65.78;99408.00;2076080;28;19913;-49
2022/06/26 01:50:59;;;;;;;;;;;;;;;23.39;65.57;99396.19;2067186;28;19917;-51
2022/06/26 01:52:00;;;;;;;;;;;;;;;23.40;65.76;99400.47;2054616;28;19922;-50
2022/06/26 01:53:00;;;;;;;;;;;;;;;23.39;65.88;99406.47;2069430;28;20255;-51
2022/06/26 01:54:00;;;;;;;;;;;;;;;23.38;65.85;99402.16;2067139;28;20004;-49
2022/06/26 01:55:01;;;;;;;;;;;;;;;23.38;65.99;99393.88;2068682;28;19956;-49
2022/06/26 01:56:02;;;;;;;;;;;;;;;23.39;65.83;99406.47;2066785;28;19999;-51
2022/06/26 01:57:02;;;;;;;;;;;;;;;23.39;65.86;99396.19;2067359;28;19924;-48
2022/06/26 01:58:03;;;;;;;;;;;;;;;23.39;66.21;99396.19;2066537;28;20003;-48
2022/06/26 01:59:03;;;;;;;;;;;;;;;23.37;65.97;99393.09;2070193;28;20303;-50
2022/06/26 02:00:04;;;;;;;;;;;;;;;23.38;65.87;99391.88;2070546;28;19966;-52
2022/06/26 02:01:07;;;;;;;;;;;;;;;23.39;65.65;99396.19;2070050;28;19963;-48
2022/06/26 02:02:07;;;;;;;;;;;;;;;23.39;65.89;99376.84;2063251;28;20439;-52
2022/06/26 02:03:08;;;;;;;;;;;;;;;23.39;65.95;99384.34;2065746;28;19920;-48
2022/06/26 02:04:09;;;;;;;;;;;;;;;23.40;66.04;99394.19;2064963;28;19917;-47
2022/06/26 02:05:09;;;;;;;;;;;;;;;23.37;66.36;99386.81;2068634;28;20019;-49
2022/06/26 02:06:10;;;;;;;;;;;;;;;23.37;66.19;99389.59;2067197;28;19945;-48
2022/06/26 02:07:10;;;;;;;;;;;;;;;23.38;65.98;99388.34;2063693;28;19967;-49
2022/06/26 02:08:10;;;;;;;;;;;;;;;23.37;65.71;99382.03;2064945;28;20832;-49
2022/06/26 02:13:36;;;;;;;;;;;;;;;23.38;65.62;99378.06;2066092;28;19921;-48
2022/06/26 02:14:29;;;;;;;;;;;;;;;23.38;65.28;99388.34;2068339;28;20377;-50
2022/06/26 02:15:29;;;;;;;;;;;;;;;23.39;65.34;99381.59;2069569;28;19917;-51
2022/06/26 02:16:30;;;;;;;;;;;;;;;23.37;65.66;99393.09;2069147;28;20461;-51
2022/06/26 02:17:31;;;;;;;;;;;;;;;23.37;65.77;99386.81;2069409;28;19928;-51
2022/06/26 02:18:32;;;;;;;;;;;;;;;23.36;65.81;99399.88;2067567;28;20004;-48
2022/06/26 02:19:32;;;;;;;;;;;;;;;23.37;65.72;99389.59;2067672;28;21404;-48
2022/06/26 02:20:32;;;;;;;;;;;;;;;23.38;65.41;99393.88;2069856;28;19920;-50
2022/06/26 02:21:35;;;;;;;;;;;;;;;23.38;65.15;99391.88;2067788;28;19987;-48
2022/06/26 02:22:35;;;;;;;;;;;;;;;23.37;65.24;99392.34;2067939;28;19956;-49
2022/06/26 02:23:37;;;;;;;;;;;;;;;23.36;65.46;99399.88;2069350;28;19940;-48
2022/06/26 02:24:39;;;;;;;;;;;;;;;23.36;65.80;99390.81;2067391;28;19921;-48
2022/06/26 02:25:40;;;;;;;;;;;;;;;23.34;65.87;99394.03;2069713;28;19923;-52
2022/06/26 02:26:40;;;;;;;;;;;;;;;23.35;65.69;99389.28;2067782;28;19917;-50
2022/06/26 02:27:40;;;;;;;;;;;;;;;23.36;65.77;99382.53;2067600;28;19978;-48
2022/06/26 02:28:41;;;;;;;;;;;;;;;23.32;65.93;99385.41;2068047;28;20394;-51
2022/06/26 02:29:41;;;;;;;;;;;;;;;23.34;65.50;99387.72;2068757;28;19917;-48
2022/06/26 02:30:42;;;;;;;;;;;;;;;23.34;65.34;99390.50;2070671;28;20012;-49
2022/06/26 02:31:42;;;;;;;;;;;;;;;23.34;65.37;99390.50;2066523;28;19917;-50
2022/06/26 02:32:42;;;;;;;;;;;;;;;23.34;65.23;99387.72;2062378;28;20207;-49
2022/06/26 02:33:43;;;;;;;;;;;;;;;23.35;65.29;99380.97;2064175;28;19949;-49
2022/06/26 02:34:43;;;;;;;;;;;;;;;23.34;65.13;99391.25;2065749;28;20542;-49
2022/06/26 02:35:43;;;;;;;;;;;;;;;23.33;65.18;99386.97;2069190;28;19928;-48
2022/06/26 02:36:44;;;;;;;;;;;;;;;23.34;65.06;99394.03;2070412;28;19932;-51
2022/06/26 02:37:44;;;;;;;;;;;;;;;23.33;65.12;99398.00;2072366;28;19925;-51
2022/06/26 02:38:45;;;;;;;;;;;;;;;23.32;65.28;99382.66;2066970;28;19921;-51
2022/06/26 02:39:45;;;;;;;;;;;;;;;23.33;65.50;99395.25;2064777;28;20443;-51
2022/06/26 02:40:45;;;;;;;;;;;;;;;23.32;65.82;99384.66;2067316;28;19964;-50
2022/06/26 02:41:46;;;;;;;;;;;;;;;23.32;65.56;99381.91;2069508;28;19923;-50
2022/06/26 02:42:46;;;;;;;;;;;;;;;23.30;65.46;99382.34;2067324;28;19920;-49
2022/06/26 02:43:46;;;;;;;;;;;;;;;23.31;65.75;99380.38;2064256;28;19909;-49
2022/06/26 02:44:47;;;;;;;;;;;;;;;23.30;65.88;99376.06;2065585;28;20657;-49
2022/06/26 02:45:47;;;;;;;;;;;;;;;23.31;65.74;99381.13;2068162;28;19920;-50
2022/06/26 02:46:48;;;;;;;;;;;;;;;23.30;65.66;99374.06;2068997;28;19945;-48
2022/06/26 02:47:48;;;;;;;;;;;;;;;23.30;65.54;99376.84;2066418;28;19917;-49
2022/06/26 02:48:48;;;;;;;;;;;;;;;23.30;65.82;99382.34;2069536;28;19916;-48
2022/06/26 02:49:49;;;;;;;;;;;;;;;23.29;65.68;99377.28;2067109;28;19906;-48
2022/06/26 02:50:49;;;;;;;;;;;;;;;23.30;65.56;99385.13;2068634;28;20327;-48
2022/06/26 02:51:49;;;;;;;;;;;;;;;23.28;65.52;99384.81;2065287;28;19944;-48
2022/06/26 02:52:50;;;;;;;;;;;;;;;23.28;65.64;99387.56;2068171;28;19967;-49
2022/06/26 02:53:50;;;;;;;;;;;;;;;23.29;65.64;99380.81;2065316;28;20399;-49
2022/06/26 02:54:50;;;;;;;;;;;;;;;23.29;65.80;99391.09;2068606;28;20319;-48
2022/06/26 02:55:51;;;;;;;;;;;;;;;23.30;65.38;99384.34;2068904;28;19920;-52
2022/06/26 02:56:51;;;;;;;;;;;;;;;23.28;65.22;99384.81;2067296;28;19960;-48
2022/06/26 02:57:51;;;;;;;;;;;;;;;23.30;65.21;99393.41;2067099;28;19936;-51
2022/06/26 02:58:52;;;;;;;;;;;;;;;23.29;65.22;99380.81;2068699;28;19917;-51
2022/06/26 02:59:52;;;;;;;;;;;;;;;23.27;65.18;99377.72;2067591;28;19917;-51
2022/06/26 03:00:52;;;;;;;;;;;;;;;23.28;65.17;99387.56;2069840;28;19973;-50
2022/06/26 03:01:53;;;;;;;;;;;;;;;23.28;65.20;99390.31;2068544;28;19913;-48
2022/06/26 03:02:53;;;;;;;;;;;;;;;23.28;65.13;99384.03;2068638;28;20334;-47
2022/06/26 03:03:53;;;;;;;;;;;;;;;23.28;65.06;99395.06;2069205;28;19917;-47
2022/06/26 03:04:54;;;;;;;;;;;;;;;23.26;65.15;99392.78;2066511;28;19924;-48
2022/06/26 03:05:54;;;;;;;;;;;;;;;23.26;64.76;99398.31;2069781;28;19983;-48
2022/06/26 03:06:54;;;;;;;;;;;;;;;23.26;64.76;99395.56;2066833;28;19928;-48
2022/06/26 03:07:56;;;;;;;;;;;;;;;23.26;64.65;99409.38;2067182;28;20281;-48
2022/06/26 03:08:56;;;;;;;;;;;;;;;23.25;64.69;99407.84;2069440;28;19936;-49
2022/06/26 03:09:56;;;;;;;;;;;;;;;23.24;65.00;99402.75;2067043;28;19924;-52
2022/06/26 03:10:57;;;;;;;;;;;;;;;23.25;65.18;99407.84;2069883;28;19948;-50
2022/06/26 03:11:57;;;;;;;;;;;;;;;23.25;64.91;99396.78;2068047;28;19917;-52
2022/06/26 03:12:57;;;;;;;;;;;;;;;23.25;64.85;99396.78;2067372;28;19931;-50
2022/06/26 03:13:58;;;;;;;;;;;;;;;23.24;64.86;99405.50;2070070;28;20523;-50
2022/06/26 03:14:58;;;;;;;;;;;;;;;23.25;64.63;99407.06;2068085;28;19917;-50
2022/06/26 03:15:59;;;;;;;;;;;;;;;23.21;64.35;99400.91;2069129;28;20332;-49
2022/06/26 03:16:59;;;;;;;;;;;;;;;23.18;64.25;99402.59;2067118;28;19925;-52
2022/06/26 03:18:02;;;;;;;;;;;;;;;23.18;64.21;99408.13;2066743;28;20000;-48
2022/06/26 03:19:02;;;;;;;;;;;;;;;23.18;64.53;99408.13;2069470;28;20369;-47
2022/06/26 03:20:03;;;;;;;;;;;;;;;23.17;64.38;99407.34;2067748;28;19921;-49
2022/06/26 03:21:04;;;;;;;;;;;;;;;23.18;64.40;99413.63;2069855;28;20213;-52
2022/06/26 03:22:04;;;;;;;;;;;;;;;23.19;64.67;99404.13;2066427;28;20030;-51
2022/06/26 03:23:05;;;;;;;;;;;;;;;23.17;64.57;99401.03;2064977;28;19925;-48
2022/06/26 03:24:05;;;;;;;;;;;;;;;23.14;64.09;99413.78;2070424;28;19909;-49
2022/06/26 03:25:07;;;;;;;;;;;;;;;23.15;64.01;99409.81;2062227;28;19929;-49
2022/06/26 03:26:08;;;;;;;;;;;;;;;23.15;64.19;99409.03;2064224;28;19987;-49
2022/06/26 03:27:08;;;;;;;;;;;;;;;23.14;64.03;99413.03;2068457;28;20319;-48
2022/06/26 03:28:08;;;;;;;;;;;;;;;23.15;64.25;99411.81;2064047;28;19921;-49
2022/06/26 03:29:09;;;;;;;;;;;;;;;23.12;64.11;99413.47;2062677;28;20556;-49
2022/06/26 03:30:11;;;;;;;;;;;;;;;23.12;64.16;99416.22;2062717;28;19917;-50
2022/06/26 03:31:11;;;;;;;;;;;;;;;23.12;64.11;99415.47;2064609;28;19917;-48
2022/06/26 03:32:11;;;;;;;;;;;;;;;23.12;64.30;99412.69;2064482;28;20405;-50
2022/06/26 03:33:12;;;;;;;;;;;;;;;23.11;64.24;99417.44;2067457;28;19967;-50
2022/06/26 03:34:12;;;;;;;;;;;;;;;23.12;64.19;99409.94;2069529;28;19960;-49
2022/06/26 03:35:12;;;;;;;;;;;;;;;23.13;64.54;99417.78;2063056;28;20297;-47
2022/06/26 03:36:13;;;;;;;;;;;;;;;23.12;64.26;99410.72;2065547;28;19966;-49
2022/06/26 03:37:13;;;;;;;;;;;;;;;23.13;64.25;99419.75;2070248;28;20065;-47
2022/06/26 03:38:14;;;;;;;;;;;;;;;23.11;64.38;99419.44;2067525;28;19921;-47
2022/06/26 03:39:14;;;;;;;;;;;;;;;23.12;64.55;99418.22;2062587;28;20383;-49
2022/06/26 03:40:15;;;;;;;;;;;;;;;23.12;64.50;99415.47;2066273;28;19920;-48
2022/06/26 03:41:15;;;;;;;;;;;;;;;23.14;64.34;99415.78;2066116;28;20014;-49
2022/06/26 03:42:15;;;;;;;;;;;;;;;23.14;64.20;99422.06;2068017;28;19944;-49
2022/06/26 03:43:16;;;;;;;;;;;;;;;23.15;64.10;99420.09;2068592;28;19974;-49
2022/06/26 03:44:16;;;;;;;;;;;;;;;23.15;63.93;99420.09;2067071;28;19924;-50
2022/06/26 03:45:17;;;;;;;;;;;;;;;23.16;63.89;99416.06;2068525;28;20750;-52
2022/06/26 03:46:17;;;;;;;;;;;;;;;23.15;63.98;99414.56;2066040;28;19970;-48
2022/06/26 03:47:17;;;;;;;;;;;;;;;23.14;64.11;99419.31;2067652;28;19940;-49
2022/06/26 03:48:18;;;;;;;;;;;;;;;23.13;64.17;99415.00;2068260;28;19917;-49
2022/06/26 03:49:18;;;;;;;;;;;;;;;23.12;63.88;99418.22;2067770;28;19917;-48
2022/06/26 03:50:18;;;;;;;;;;;;;;;23.11;63.76;99405.63;2066522;28;19970;-49
2022/06/26 03:51:18;;;;;;;;;;;;;;;23.11;63.69;99413.91;2064051;28;20569;-47
2022/06/26 03:52:19;;;;;;;;;;;;;;;23.11;63.86;99414.69;2062889;28;20339;-48
2022/06/26 03:53:20;;;;;;;;;;;;;;;23.10;63.40;99421.47;2067999;28;19917;-48
2022/06/26 03:54:20;;;;;;;;;;;;;;;23.08;63.40;99415.63;2064731;28;20006;-48
2022/06/26 03:55:20;;;;;;;;;;;;;;;23.08;63.53;99420.38;2067410;28;20414;-48
2022/06/26 03:56:21;;;;;;;;;;;;;;;23.08;63.55;99423.13;2062952;28;20323;-50
2022/06/26 03:57:21;;;;;;;;;;;;;;;23.07;63.63;99413.28;2064814;28;19929;-48
2022/06/26 03:58:22;;;;;;;;;;;;;;;23.08;63.84;99414.84;2066245;28;20461;-48
2022/06/26 03:59:22;;;;;;;;;;;;;;;23.08;64.02;99420.38;2068390;28;19968;-49
2022/06/26 04:00:23;;;;;;;;;;;;;;;23.07;64.04;99424.34;2064302;28;19917;-51
2022/06/26 04:01:23;;;;;;;;;;;;;;;23.08;64.07;99420.38;2066918;28;19928;-50
2022/06/26 04:02:23;;;;;;;;;;;;;;;23.07;64.08;99425.13;2070754;28;20634;-49
2022/06/26 04:03:24;;;;;;;;;;;;;;;23.08;64.05;99429.44;2062671;28;19921;-49
2022/06/26 04:04:24;;;;;;;;;;;;;;;23.10;63.85;99437.25;2061258;28;19910;-51
2022/06/26 04:05:24;;;;;;;;;;;;;;;23.10;63.80;99432.50;2068891;28;20212;-50
2022/06/26 04:06:25;;;;;;;;;;;;;;;23.10;63.85;99437.25;2064095;28;19948;-48
2022/06/26 04:07:25;;;;;;;;;;;;;;;23.11;63.85;99433.25;2070518;28;20399;-48
2022/06/26 04:08:25;;;;;;;;;;;;;;;23.11;64.38;99430.50;2061317;28;19917;-48
2022/06/26 04:09:26;;;;;;;;;;;;;;;23.10;64.40;99434.50;2072542;28;20685;-49
2022/06/26 04:10:26;;;;;;;;;;;;;;;23.08;64.59;99431.41;2077604;28;20394;-49
2022/06/26 04:11:27;;;;;;;;;;;;;;;23.09;64.48;99436.50;2063115;28;19928;-48
2022/06/26 04:12:27;;;;;;;;;;;;;;;23.09;64.37;99439.25;2069168;28;19968;-49
2022/06/26 04:13:28;;;;;;;;;;;;;;;23.11;64.32;99431.25;2068781;28;20267;-49
2022/06/26 04:14:28;;;;;;;;;;;;;;;23.10;64.25;99440.03;2065107;28;20365;-50
2022/06/26 04:15:29;;;;;;;;;;;;;;;23.11;64.30;99436.00;2070560;28;19917;-49
2022/06/26 04:16:30;;;;;;;;;;;;;;;23.10;64.28;99440.03;2066508;28;21561;-51
2022/06/26 04:17:30;;;;;;;;;;;;;;;23.10;64.22;99434.50;2062599;28;20130;-49
2022/06/26 04:18:30;;;;;;;;;;;;;;;23.11;64.32;99438.78;2065615;28;19924;-48
2022/06/26 04:19:31;;;;;;;;;;;;;;;23.11;64.19;99433.25;2063107;28;20022;-49
2022/06/26 04:20:31;;;;;;;;;;;;;;;23.12;64.05;99429.28;2063829;28;20282;-49
2022/06/26 04:21:31;;;;;;;;;;;;;;;23.11;63.94;99424.97;2065065;28;19921;-51
2022/06/26 04:22:32;;;;;;;;;;;;;;;23.11;63.89;99431.25;2067439;28;19921;-48
2022/06/26 04:23:32;;;;;;;;;;;;;;;23.11;63.87;99425.72;2066435;28;19917;-51
2022/06/26 04:24:32;;;;;;;;;;;;;;;23.11;63.93;99422.19;2066475;28;20371;-51
2022/06/26 04:25:33;;;;;;;;;;;;;;;23.12;64.12;99437.56;2068440;28;20294;-49
2022/06/26 04:26:33;;;;;;;;;;;;;;;23.12;64.06;99437.56;2067116;28;19919;-48
2022/06/26 04:27:34;;;;;;;;;;;;;;;23.11;64.04;99427.72;2068584;28;20257;-49
2022/06/26 04:28:34;;;;;;;;;;;;;;;23.11;64.10;99424.97;2066553;28;19917;-48
2022/06/26 04:29:34;;;;;;;;;;;;;;;23.10;64.00;99431.75;2068186;28;20612;-49
2022/06/26 04:30:36;;;;;;;;;;;;;;;23.11;63.96;99424.97;2068520;28;19924;-48
2022/06/26 04:31:36;;;;;;;;;;;;;;;23.10;63.88;99428.97;2066989;28;20140;-49
2022/06/26 04:32:37;;;;;;;;;;;;;;;23.09;64.05;99433.72;2068728;28;20235;-51
2022/06/26 04:33:37;;;;;;;;;;;;;;;23.10;63.94;99428.97;2067248;28;19921;-48
2022/06/26 04:34:37;;;;;;;;;;;;;;;23.10;63.57;99434.50;2067459;28;20399;-49
2022/06/26 04:35:38;;;;;;;;;;;;;;;23.09;63.49;99433.72;2066988;28;20004;-48
2022/06/26 04:36:38;;;;;;;;;;;;;;;23.09;63.72;99424.66;2066479;28;20791;-49
2022/06/26 04:37:38;;;;;;;;;;;;;;;23.09;63.75;99427.44;2069737;28;19924;-48
2022/06/26 04:38:39;;;;;;;;;;;;;;;23.09;63.70;99428.19;2067502;28;20610;-49
2022/06/26 04:39:39;;;;;;;;;;;;;;;23.08;63.72;99421.13;2066034;28;20397;-48
2022/06/26 04:40:39;;;;;;;;;;;;;;;23.05;63.38;99416.50;2065532;28;19915;-47
2022/06/26 04:41:39;;;;;;;;;;;;;;;23.06;63.57;99429.09;2068213;28;20324;-51
2022/06/26 04:42:41;;;;;;;;;;;;;;;23.05;63.73;99421.28;2064269;28;20437;-49
2022/06/26 04:43:41;;;;;;;;;;;;;;;23.06;63.84;99428.31;2066043;28;19936;-49
2022/06/26 04:44:41;;;;;;;;;;;;;;;23.06;63.79;99422.81;2066102;28;19928;-49
2022/06/26 04:45:42;;;;;;;;;;;;;;;23.05;63.84;99426.81;2067434;28;19916;-51
2022/06/26 04:46:42;;;;;;;;;;;;;;;23.05;63.77;99432.34;2067372;28;20262;-52
2022/06/26 04:47:43;;;;;;;;;;;;;;;23.05;64.01;99432.34;2068162;28;19913;-49
2022/06/26 04:48:43;;;;;;;;;;;;;;;23.05;63.80;99424.06;2066961;28;19921;-51
2022/06/26 04:49:43;;;;;;;;;;;;;;;23.04;63.75;99428.81;2068664;28;20299;-48
2022/06/26 04:50:43;;;;;;;;;;;;;;;23.04;63.95;99430.78;2062577;28;19921;-49
2022/06/26 04:51:44;;;;;;;;;;;;;;;23.02;63.82;99427.72;2067092;28;19925;-49
2022/06/26 04:52:45;;;;;;;;;;;;;;;23.02;63.74;99422.94;2067232;28;20343;-49
2022/06/26 04:53:46;;;;;;;;;;;;;;;23.02;63.94;99427.72;2066461;28;20343;-48
2022/06/26 04:54:46;;;;;;;;;;;;;;;23.02;63.95;99428.47;2069309;28;20513;-48
2022/06/26 04:55:47;;;;;;;;;;;;;;;23.03;63.93;99429.25;2066428;28;19916;-49
2022/06/26 04:56:47;;;;;;;;;;;;;;;23.02;63.91;99419.41;2068761;28;19960;-50
2022/06/26 04:57:47;;;;;;;;;;;;;;;23.03;63.95;99423.72;2066684;28;19948;-48
2022/06/26 04:58:48;;;;;;;;;;;;;;;23.04;63.89;99428.03;2064794;28;19913;-49
2022/06/26 04:59:48;;;;;;;;;;;;;;;23.02;63.78;99433.22;2068999;28;20193;-48
2022/06/26 05:00:48;;;;;;;;;;;;;;;23.03;63.87;99429.25;2066655;28;19925;-49
2022/06/26 05:01:49;;;;;;;;;;;;;;;23.02;64.05;99428.47;2064350;28;19960;-51
2022/06/26 05:02:49;;;;;;;;;;;;;;;23.02;64.11;99433.22;2066960;28;19917;-51
2022/06/26 05:03:50;;;;;;;;;;;;;;;23.03;64.13;99432.78;2067229;28;19924;-48
2022/06/26 05:04:50;;;;;;;;;;;;;;;23.03;64.18;99432.78;2068731;28;19968;-47
2022/06/26 05:05:50;;;;;;;;;;;;;;;23.02;64.38;99431.25;2065434;28;20294;-48
2022/06/26 05:06:50;;;;;;;;;;;;;;;23.02;64.33;99436.00;2075507;28;19921;-51
2022/06/26 05:07:51;;;;;;;;;;;;;;;23.02;64.07;99433.22;2066587;28;19917;-48
2022/06/26 05:08:51;;;;;;;;;;;;;;;23.03;64.15;99432.00;2065960;28;19928;-51
2022/06/26 05:09:51;;;;;;;;;;;;;;;23.03;64.16;99432.00;2067700;28;20859;-49
2022/06/26 05:10:51;;;;;;;;;;;;;;;23.03;64.26;99440.28;2066824;28;19923;-48
2022/06/26 05:11:52;;;;;;;;;;;;;;;23.02;64.25;99431.25;2068269;28;20172;-48
2022/06/26 05:12:52;;;;;;;;;;;;;;;23.03;64.20;99437.53;2067822;28;19921;-48
2022/06/26 05:13:54;;;;;;;;;;;;;;;23.01;64.25;99437.97;2065361;28;20461;-48
2022/06/26 05:14:54;;;;;;;;;;;;;;;23.02;64.30;99425.72;2068793;28;19921;-48
2022/06/26 05:15:54;;;;;;;;;;;;;;;23.02;64.38;99436.00;2064833;28;19944;-50
2022/06/26 05:16:55;;;;;;;;;;;;;;;23.02;64.38;99425.72;2062140;28;19965;-52
2022/06/26 05:17:55;;;;;;;;;;;;;;;23.02;64.48;99427.72;2067534;28;19952;-48
2022/06/26 05:18:55;;;;;;;;;;;;;;;23.01;64.47;99423.41;2065905;28;20281;-49
2022/06/26 05:19:56;;;;;;;;;;;;;;;23.01;64.38;99429.69;2067584;28;19984;-50